createdAt,value
2022-12-31T00:01:43.575Z,11.45
2022-12-31T00:03:49.249Z,11.49
2022-12-31T00:05:54.123Z,11.49
2022-12-31T00:07:58.881Z,11.48
2022-12-31T00:10:06.915Z,11.51
2022-12-31T00:12:11.804Z,11.52
2022-12-31T00:14:16.690Z,11.52
2022-12-31T00:16:23.560Z,11.56
2022-12-31T00:18:28.803Z,11.54
2022-12-31T00:20:33.934Z,11.56
2022-12-31T00:22:38.751Z,11.60
2022-12-31T00:24:43.654Z,11.61
2022-12-31T00:26:51.119Z,11.60
2022-12-31T00:28:57.484Z,11.61
2022-12-31T00:31:12.114Z,11.66
2022-12-31T00:33:16.900Z,11.64
2022-12-31T00:35:21.755Z,11.66
2022-12-31T00:37:26.683Z,11.61
2022-12-31T00:39:31.738Z,11.63
2022-12-31T00:41:37.180Z,11.67
2022-12-31T00:43:45.066Z,11.72
2022-12-31T00:45:49.967Z,11.74
2022-12-31T00:47:54.820Z,11.78
2022-12-31T00:49:59.650Z,11.80
2022-12-31T00:52:04.603Z,11.84
2022-12-31T00:54:10.210Z,11.88
2022-12-31T00:56:17.297Z,11.91
2022-12-31T00:58:22.212Z,11.89
2022-12-31T01:00:29.745Z,11.92
2022-12-31T01:02:35.678Z,11.94
2022-12-31T01:04:40.682Z,11.91
2022-12-31T01:06:46.292Z,11.93
2022-12-31T01:08:52.436Z,11.97
2022-12-31T01:11:09.782Z,11.98
2022-12-31T01:13:14.717Z,12.02
2022-12-31T01:15:19.716Z,12.02
2022-12-31T01:17:27.202Z,12.06
2022-12-31T01:19:32.797Z,12.10
2022-12-31T01:21:39.685Z,12.11
2022-12-31T01:23:45.214Z,12.11
2022-12-31T01:25:50.156Z,12.10
2022-12-31T01:27:55.019Z,12.10
2022-12-31T01:29:59.937Z,12.15
2022-12-31T01:32:06.019Z,12.16
2022-12-31T01:34:13.646Z,12.18
2022-12-31T01:36:25.509Z,12.18
2022-12-31T01:38:30.890Z,12.14
2022-12-31T01:40:39.992Z,12.18
2022-12-31T01:42:47.674Z,12.22
2022-12-31T01:44:55.793Z,12.25
2022-12-31T01:47:03.636Z,12.30
2022-12-31T01:49:19.788Z,12.32
2022-12-31T01:51:25.403Z,12.33
2022-12-31T01:53:30.957Z,12.36
2022-12-31T01:55:39.243Z,12.41
2022-12-31T01:57:46.791Z,12.45
2022-12-31T01:59:52.005Z,12.46
2022-12-31T02:01:56.751Z,12.42
2022-12-31T02:04:07.126Z,12.42
2022-12-31T02:06:19.883Z,12.43
2022-12-31T02:08:24.992Z,12.42
2022-12-31T02:10:29.655Z,12.40
2022-12-31T02:12:34.938Z,12.39
2022-12-31T02:14:43.045Z,12.40
2022-12-31T02:17:00.455Z,12.41
2022-12-31T02:19:21.475Z,12.44
2022-12-31T02:21:44.482Z,12.43
2022-12-31T02:24:19.021Z,12.39
2022-12-31T02:26:40.389Z,12.35
2022-12-31T02:29:09.795Z,12.34
2022-12-31T02:31:21.508Z,12.34
2022-12-31T02:33:32.844Z,12.37
2022-12-31T02:35:46.167Z,12.41
2022-12-31T02:37:55.510Z,12.40
2022-12-31T02:40:01.358Z,12.38
2022-12-31T02:42:06.663Z,12.35
2022-12-31T02:44:24.951Z,12.41
2022-12-31T02:46:38.222Z,12.41
2022-12-31T02:48:55.812Z,12.45
2022-12-31T02:51:14.536Z,12.47
2022-12-31T02:53:33.412Z,12.46
2022-12-31T02:55:48.124Z,12.44
2022-12-31T02:57:59.859Z,12.44
2022-12-31T03:00:21.623Z,12.41
2022-12-31T03:02:32.665Z,12.37
2022-12-31T03:04:38.802Z,12.34
2022-12-31T03:06:45.017Z,12.38
2022-12-31T03:09:02.129Z,12.37
2022-12-31T03:11:27.203Z,12.39
2022-12-31T03:13:29.377Z,12.40
2022-12-31T03:15:36.356Z,12.40
2022-12-31T03:17:43.713Z,12.38
2022-12-31T03:20:01.131Z,12.33
2022-12-31T03:22:18.473Z,12.29
2022-12-31T03:24:38.245Z,12.21
2022-12-31T03:26:43.155Z,12.18
2022-12-31T03:28:48.611Z,12.19
2022-12-31T03:30:55.586Z,12.19
2022-12-31T03:33:03.962Z,12.17
2022-12-31T03:35:10.669Z,12.16
2022-12-31T03:37:15.550Z,12.19
2022-12-31T03:39:20.350Z,12.20
2022-12-31T03:41:25.231Z,12.24
2022-12-31T03:43:30.039Z,12.29
2022-12-31T03:45:34.848Z,12.31
2022-12-31T03:47:41.513Z,12.35
2022-12-31T03:49:50.334Z,12.38
2022-12-31T03:51:55.106Z,12.42
2022-12-31T03:53:59.943Z,12.47
2022-12-31T03:56:04.731Z,12.51
2022-12-31T03:58:09.604Z,12.49
2022-12-31T04:00:18.059Z,12.48
2022-12-31T04:02:28.258Z,12.47
2022-12-31T04:04:34.022Z,12.48
2022-12-31T04:06:41.478Z,12.50
2022-12-31T04:08:46.412Z,12.49
2022-12-31T04:10:51.388Z,12.46
2022-12-31T04:12:56.263Z,12.40
2022-12-31T04:15:01.438Z,12.39
2022-12-31T04:17:06.008Z,12.37
2022-12-31T04:19:10.912Z,12.38
2022-12-31T04:21:15.674Z,12.40
2022-12-31T04:23:23.145Z,12.43
2022-12-31T04:25:27.939Z,12.45
2022-12-31T04:27:32.809Z,12.50
2022-12-31T04:29:38.977Z,12.54
2022-12-31T04:31:43.935Z,12.57
2022-12-31T04:33:48.758Z,12.59
2022-12-31T04:35:53.651Z,12.62
2022-12-31T04:37:58.440Z,12.64
2022-12-31T04:40:06.976Z,12.65
2022-12-31T04:42:12.674Z,12.70
2022-12-31T04:44:17.847Z,12.73
2022-12-31T04:46:23.914Z,12.71
2022-12-31T04:48:28.737Z,12.73
2022-12-31T04:50:33.499Z,12.78
2022-12-31T04:52:42.763Z,12.83
2022-12-31T04:54:47.879Z,12.85
2022-12-31T04:56:55.336Z,12.87
2022-12-31T04:59:00.520Z,12.87
2022-12-31T05:01:07.958Z,12.88
2022-12-31T05:03:12.970Z,12.89
2022-12-31T05:05:17.969Z,12.85
2022-12-31T05:07:22.756Z,12.81
2022-12-31T05:09:28.457Z,12.78
2022-12-31T05:11:33.377Z,12.74
2022-12-31T05:13:41.148Z,12.72
2022-12-31T05:15:46.112Z,12.68
2022-12-31T05:17:50.977Z,12.64
2022-12-31T05:19:55.743Z,12.63
2022-12-31T05:22:13.044Z,12.62
2022-12-31T05:24:17.886Z,12.60
2022-12-31T05:26:22.794Z,12.61
2022-12-31T05:28:27.818Z,12.60
2022-12-31T05:30:35.217Z,12.66
2022-12-31T05:32:40.216Z,12.72
2022-12-31T05:34:45.288Z,12.73
2022-12-31T05:36:50.132Z,12.78
2022-12-31T05:38:54.970Z,12.80
2022-12-31T05:41:03.922Z,12.76
2022-12-31T05:43:09.081Z,12.76
2022-12-31T05:45:16.025Z,12.75
2022-12-31T05:47:23.984Z,12.71
2022-12-31T05:49:28.757Z,12.68
2022-12-31T05:51:33.593Z,12.70
2022-12-31T05:53:38.467Z,12.71
2022-12-31T05:55:43.342Z,12.67
2022-12-31T05:57:51.045Z,12.69
2022-12-31T05:59:55.932Z,12.64
2022-12-31T06:02:00.833Z,12.64
2022-12-31T06:04:08.476Z,12.66
2022-12-31T06:06:13.372Z,12.63
2022-12-31T06:08:18.183Z,12.64
2022-12-31T06:10:23.050Z,12.68
2022-12-31T06:12:27.946Z,12.73
2022-12-31T06:14:32.721Z,12.74
2022-12-31T06:16:37.777Z,12.73
2022-12-31T06:18:42.587Z,12.75
2022-12-31T06:20:50.020Z,12.77
2022-12-31T06:22:54.959Z,12.77
2022-12-31T06:24:59.761Z,12.77
2022-12-31T06:27:04.555Z,12.76
2022-12-31T06:29:09.362Z,12.72
2022-12-31T06:31:15.638Z,12.64
2022-12-31T06:33:20.507Z,12.63
2022-12-31T06:35:25.648Z,12.61
2022-12-31T06:37:32.869Z,12.53
2022-12-31T06:39:37.980Z,12.55
2022-12-31T06:41:42.863Z,12.54
2022-12-31T06:43:48.021Z,12.53
2022-12-31T06:45:52.957Z,12.53
2022-12-31T06:47:57.975Z,12.58
2022-12-31T06:50:02.880Z,12.59
2022-12-31T06:52:08.444Z,12.60
2022-12-31T06:54:16.256Z,12.65
2022-12-31T06:56:31.377Z,12.67
2022-12-31T06:58:39.235Z,12.71
2022-12-31T07:00:53.353Z,12.71
2022-12-31T07:03:20.585Z,12.74
2022-12-31T07:05:35.054Z,12.76
2022-12-31T07:07:52.888Z,12.73
2022-12-31T07:10:08.658Z,12.80
2022-12-31T07:12:21.771Z,12.78
2022-12-31T07:14:34.746Z,12.80
2022-12-31T07:16:52.692Z,12.88
2022-12-31T07:19:06.517Z,12.88
2022-12-31T07:21:16.232Z,12.91
2022-12-31T07:23:21.869Z,12.95
2022-12-31T07:25:30.249Z,13.03
2022-12-31T07:27:53.228Z,13.04
2022-12-31T07:30:09.303Z,13.06
2022-12-31T07:32:28.953Z,13.10
2022-12-31T07:34:44.815Z,13.10
2022-12-31T07:37:02.592Z,13.13
2022-12-31T07:39:13.443Z,13.10
2022-12-31T07:41:32.716Z,13.08
2022-12-31T07:43:45.409Z,13.09
2022-12-31T07:45:55.652Z,13.14
2022-12-31T07:48:02.977Z,13.14
2022-12-31T07:50:17.930Z,13.16
2022-12-31T07:52:24.098Z,13.16
2022-12-31T07:54:28.968Z,13.22
2022-12-31T07:56:36.709Z,13.28
2022-12-31T07:59:06.939Z,13.32
2022-12-31T08:01:14.700Z,13.33
2022-12-31T08:03:37.110Z,13.35
2022-12-31T08:05:52.415Z,13.35
2022-12-31T08:08:06.655Z,13.34
2022-12-31T08:10:18.397Z,13.33
2022-12-31T08:12:27.645Z,13.29
2022-12-31T08:14:33.286Z,13.30
2022-12-31T08:16:38.857Z,13.33
2022-12-31T08:18:44.807Z,13.32
2022-12-31T08:20:58.711Z,13.35
2022-12-31T08:23:24.162Z,13.39
2022-12-31T08:25:36.068Z,13.43
2022-12-31T08:27:49.616Z,13.45
2022-12-31T08:30:12.733Z,13.50
2022-12-31T08:32:24.645Z,13.54
2022-12-31T08:34:36.521Z,13.56
2022-12-31T08:36:50.678Z,13.62
2022-12-31T08:39:03.278Z,13.58
2022-12-31T08:41:19.342Z,13.68
2022-12-31T08:43:43.860Z,13.75
2022-12-31T08:45:51.717Z,13.77
2022-12-31T08:48:06.993Z,13.81
2022-12-31T08:50:17.290Z,13.88
2022-12-31T08:52:26.674Z,13.86
2022-12-31T08:54:32.473Z,13.90
2022-12-31T08:56:46.009Z,13.91
2022-12-31T08:59:06.758Z,13.95
2022-12-31T09:01:12.301Z,13.99
2022-12-31T09:03:38.852Z,14.07
2022-12-31T09:05:53.123Z,14.07
2022-12-31T09:08:11.821Z,14.08
2022-12-31T09:10:23.717Z,14.12
2022-12-31T09:12:38.294Z,14.16
2022-12-31T09:14:51.195Z,14.22
2022-12-31T09:17:07.927Z,14.24
2022-12-31T09:19:13.207Z,14.29
2022-12-31T09:21:19.060Z,14.34
2022-12-31T09:23:24.687Z,14.36
2022-12-31T09:25:31.378Z,14.36
2022-12-31T09:27:43.997Z,14.35
2022-12-31T09:30:04.119Z,14.31
2022-12-31T09:32:16.881Z,14.29
2022-12-31T09:34:27.949Z,14.27
2022-12-31T09:36:35.208Z,14.28
2022-12-31T09:38:46.378Z,14.29
2022-12-31T09:41:16.899Z,14.36
2022-12-31T09:43:59.014Z,14.32
2022-12-31T09:46:52.309Z,14.32
2022-12-31T09:49:24.585Z,14.33
2022-12-31T09:51:34.752Z,14.37
2022-12-31T09:53:43.972Z,14.37
2022-12-31T09:55:55.622Z,14.42
2022-12-31T09:58:09.858Z,14.54
2022-12-31T10:00:22.025Z,14.59
2022-12-31T10:02:45.321Z,14.66
2022-12-31T10:05:15.613Z,14.79
2022-12-31T10:07:35.255Z,14.84
2022-12-31T10:09:57.320Z,14.93
2022-12-31T10:12:26.661Z,14.97
2022-12-31T10:14:50.441Z,14.99
2022-12-31T10:17:12.178Z,15.03
2022-12-31T10:19:54.635Z,15.03
2022-12-31T10:22:11.073Z,15.05
2022-12-31T10:24:37.343Z,15.10
2022-12-31T10:27:07.698Z,15.11
2022-12-31T10:29:24.698Z,15.15
2022-12-31T10:31:41.102Z,15.19
2022-12-31T10:33:48.932Z,15.21
2022-12-31T10:36:00.995Z,15.25
2022-12-31T10:38:19.076Z,15.26
2022-12-31T10:40:35.742Z,15.34
2022-12-31T10:43:24.030Z,15.35
2022-12-31T10:46:01.661Z,15.33
2022-12-31T10:48:32.926Z,15.31
2022-12-31T10:51:07.226Z,15.37
2022-12-31T10:53:35.127Z,15.38
2022-12-31T10:56:14.229Z,15.46
2022-12-31T10:58:48.572Z,15.53
2022-12-31T11:01:01.604Z,15.50
2022-12-31T11:03:36.291Z,15.51
2022-12-31T11:06:27.683Z,15.56
2022-12-31T11:08:56.742Z,15.53
2022-12-31T11:11:24.851Z,15.59
2022-12-31T11:14:02.250Z,15.67
2022-12-31T11:16:24.631Z,15.70
2022-12-31T11:18:39.914Z,15.69
2022-12-31T11:21:09.887Z,15.71
2022-12-31T11:23:27.211Z,15.70
2022-12-31T11:25:50.640Z,15.72
2022-12-31T11:28:25.359Z,15.72
2022-12-31T11:30:40.240Z,15.73
2022-12-31T11:32:57.238Z,15.72
2022-12-31T11:35:23.891Z,15.74
2022-12-31T11:37:44.350Z,15.75
2022-12-31T11:39:56.983Z,15.73
2022-12-31T11:42:13.996Z,15.76
2022-12-31T11:44:37.979Z,15.76
2022-12-31T11:47:12.593Z,15.74
2022-12-31T11:49:35.879Z,15.74
2022-12-31T11:51:59.708Z,15.80
2022-12-31T11:54:38.145Z,15.85
2022-12-31T11:56:55.826Z,15.89
2022-12-31T11:59:06.193Z,15.94
2022-12-31T12:01:20.635Z,15.99
2022-12-31T12:03:26.296Z,16.07
2022-12-31T12:05:34.249Z,16.14
2022-12-31T12:07:39.194Z,16.17
2022-12-31T12:09:48.723Z,16.22
2022-12-31T12:12:01.615Z,16.26
2022-12-31T12:14:21.956Z,16.29
2022-12-31T12:16:29.836Z,16.29
2022-12-31T12:18:40.842Z,16.30
2022-12-31T12:20:49.250Z,16.32
2022-12-31T12:22:56.456Z,16.35
2022-12-31T12:25:07.976Z,16.34
2022-12-31T12:27:27.391Z,16.40
2022-12-31T12:29:34.892Z,16.40
2022-12-31T12:31:41.771Z,16.43
2022-12-31T12:33:48.508Z,16.39
2022-12-31T12:35:53.655Z,16.41
2022-12-31T12:38:02.213Z,16.40
2022-12-31T12:40:21.306Z,16.42
2022-12-31T12:42:26.613Z,16.44
2022-12-31T12:44:31.571Z,16.46
2022-12-31T12:46:41.343Z,16.46
2022-12-31T12:48:52.242Z,16.48
2022-12-31T12:50:57.438Z,16.49
2022-12-31T12:53:31.776Z,16.55
2022-12-31T12:55:49.709Z,16.58
2022-12-31T12:58:06.941Z,16.59
2022-12-31T13:00:19.355Z,16.64
2022-12-31T13:02:49.451Z,16.64
2022-12-31T13:05:10.033Z,16.68
2022-12-31T13:07:27.559Z,16.69
2022-12-31T13:09:49.250Z,16.69
2022-12-31T13:12:08.123Z,16.69
2022-12-31T13:14:23.599Z,16.69
2022-12-31T13:16:37.563Z,16.70
2022-12-31T13:18:51.524Z,16.74
2022-12-31T13:21:02.991Z,16.75
2022-12-31T13:23:19.880Z,16.74
2022-12-31T13:25:32.486Z,16.74
2022-12-31T13:27:44.752Z,16.70
2022-12-31T13:29:51.273Z,16.70
2022-12-31T13:32:00.166Z,16.72
2022-12-31T13:34:10.045Z,16.76
2022-12-31T13:36:19.406Z,16.75
2022-12-31T13:38:28.624Z,16.74
2022-12-31T13:40:41.292Z,16.74
2022-12-31T13:42:57.678Z,16.70
2022-12-31T13:45:06.138Z,16.68
2022-12-31T13:47:16.793Z,16.65
2022-12-31T13:49:29.640Z,16.61
2022-12-31T13:51:44.368Z,16.59
2022-12-31T13:53:57.724Z,16.56
2022-12-31T13:56:08.787Z,16.53
2022-12-31T13:58:25.977Z,16.51
2022-12-31T14:00:38.324Z,16.47
2022-12-31T14:02:50.851Z,16.46
2022-12-31T14:05:00.665Z,16.46
2022-12-31T14:07:10.462Z,16.44
2022-12-31T14:09:20.831Z,16.41
2022-12-31T14:11:45.762Z,16.38
2022-12-31T14:14:10.330Z,16.38
2022-12-31T14:16:24.350Z,16.37
2022-12-31T14:18:39.208Z,16.38
2022-12-31T14:20:50.903Z,16.34
2022-12-31T14:23:06.566Z,16.27
2022-12-31T14:25:20.016Z,16.19
2022-12-31T14:27:31.876Z,16.17
2022-12-31T14:29:45.641Z,16.14
2022-12-31T14:32:21.851Z,16.10
2022-12-31T14:34:38.840Z,16.06
2022-12-31T14:36:53.839Z,16.02
2022-12-31T14:39:16.638Z,16.00
2022-12-31T14:41:55.552Z,15.97
2022-12-31T14:44:16.472Z,15.93
2022-12-31T14:46:32.755Z,15.91
2022-12-31T14:48:47.481Z,15.85
2022-12-31T14:50:52.899Z,15.83
2022-12-31T14:53:09.059Z,15.83
2022-12-31T14:55:27.159Z,15.82
2022-12-31T14:58:09.559Z,15.77
2022-12-31T15:00:04.914Z,15.72
2022-12-31T15:02:33.771Z,15.69
2022-12-31T15:04:48.443Z,15.63
2022-12-31T15:07:05.087Z,15.59
2022-12-31T15:09:19.808Z,15.54
2022-12-31T15:11:40.351Z,15.51
2022-12-31T15:14:04.936Z,15.49
2022-12-31T15:16:25.993Z,15.44
2022-12-31T15:18:50.659Z,15.42
2022-12-31T15:21:14.197Z,15.36
2022-12-31T15:23:24.988Z,15.31
2022-12-31T15:25:40.561Z,15.28
2022-12-31T15:27:49.961Z,15.23
2022-12-31T15:29:54.905Z,15.20
2022-12-31T15:32:01.768Z,15.14
2022-12-31T15:34:10.591Z,15.12
2022-12-31T15:36:19.550Z,15.07
2022-12-31T15:38:38.108Z,15.06
2022-12-31T15:40:46.520Z,15.04
2022-12-31T15:42:57.610Z,15.03
2022-12-31T15:45:07.867Z,14.96
2022-12-31T15:47:20.465Z,14.92
2022-12-31T15:49:29.086Z,14.89
2022-12-31T15:51:39.235Z,14.85
2022-12-31T15:53:47.099Z,14.82
2022-12-31T15:55:56.705Z,14.81
2022-12-31T15:58:07.560Z,14.79
2022-12-31T16:00:20.033Z,14.74
2022-12-31T16:02:28.532Z,14.69
2022-12-31T16:04:39.506Z,14.62
2022-12-31T16:06:50.486Z,14.58
2022-12-31T16:08:56.041Z,14.54
2022-12-31T16:11:03.228Z,14.55
2022-12-31T16:13:10.779Z,14.54
2022-12-31T16:15:24.585Z,14.52
2022-12-31T16:17:32.529Z,14.47
2022-12-31T16:19:46.268Z,14.45
2022-12-31T16:21:51.089Z,14.43
2022-12-31T16:23:57.784Z,14.40
2022-12-31T16:26:05.608Z,14.36
2022-12-31T16:28:10.491Z,14.33
2022-12-31T16:30:23.685Z,14.30
2022-12-31T16:32:29.015Z,14.24
2022-12-31T16:34:38.707Z,14.22
2022-12-31T16:36:56.953Z,14.20
2022-12-31T16:39:27.663Z,14.18
2022-12-31T16:41:45.098Z,14.16
2022-12-31T16:43:51.742Z,14.15
2022-12-31T16:45:59.295Z,14.15
2022-12-31T16:48:16.349Z,14.12
2022-12-31T16:50:24.527Z,14.09
2022-12-31T16:52:37.964Z,14.04
2022-12-31T16:54:47.008Z,14.03
2022-12-31T16:56:51.931Z,14.01
2022-12-31T16:59:04.420Z,14.00
2022-12-31T17:01:16.850Z,13.98
2022-12-31T17:03:24.924Z,13.96
2022-12-31T17:05:30.562Z,13.96
2022-12-31T17:07:47.162Z,13.94
2022-12-31T17:10:03.880Z,13.89
2022-12-31T17:12:22.322Z,13.87
2022-12-31T17:14:30.577Z,13.82
2022-12-31T17:16:36.576Z,13.80
2022-12-31T17:18:41.919Z,13.80
2022-12-31T17:20:47.029Z,13.79
2022-12-31T17:22:55.864Z,13.77
2022-12-31T17:25:04.690Z,13.78
2022-12-31T17:27:11.454Z,13.79
2022-12-31T17:29:26.275Z,13.80
2022-12-31T17:31:35.314Z,13.80
2022-12-31T17:33:40.523Z,13.81
2022-12-31T17:35:47.390Z,13.83
2022-12-31T17:37:55.097Z,13.81
2022-12-31T17:40:24.971Z,13.81
2022-12-31T17:42:34.821Z,13.77
2022-12-31T17:44:42.638Z,13.79
2022-12-31T17:46:51.010Z,13.75
2022-12-31T17:49:00.560Z,13.77
2022-12-31T17:51:05.864Z,13.76
2022-12-31T17:53:15.748Z,13.74
2022-12-31T17:55:20.664Z,13.70
2022-12-31T17:57:30.417Z,13.71
2022-12-31T17:59:37.259Z,13.68
2022-12-31T18:01:42.348Z,13.68
2022-12-31T18:03:47.925Z,13.68
2022-12-31T18:05:55.043Z,13.68
2022-12-31T18:07:59.967Z,13.63
2022-12-31T18:10:08.015Z,13.67
2022-12-31T18:12:16.850Z,13.67
2022-12-31T18:14:21.625Z,13.62
2022-12-31T18:16:29.310Z,13.63
2022-12-31T18:18:40.004Z,13.64
2022-12-31T18:20:44.909Z,13.58
2022-12-31T18:22:49.869Z,13.57
2022-12-31T18:24:56.971Z,13.53
2022-12-31T18:27:08.876Z,13.50
2022-12-31T18:41:57.004Z,14.30
2022-12-31T18:44:01.904Z,14.12
2022-12-31T18:46:07.096Z,13.96
2022-12-31T18:48:13.378Z,13.81
2022-12-31T18:50:20.400Z,13.71
2022-12-31T18:52:25.769Z,13.63
2022-12-31T18:54:30.546Z,13.62
2022-12-31T18:56:35.394Z,13.51
2022-12-31T18:58:43.238Z,13.46
2022-12-31T19:00:51.268Z,13.42
2022-12-31T19:02:56.273Z,13.35
2022-12-31T19:05:01.006Z,13.31
2022-12-31T19:07:08.089Z,13.28
2022-12-31T19:09:30.674Z,13.27
2022-12-31T19:11:38.519Z,13.25
2022-12-31T19:13:45.909Z,13.24
2022-12-31T19:15:52.577Z,13.25
2022-12-31T19:17:57.487Z,13.27
2022-12-31T19:20:06.744Z,13.27
2022-12-31T19:22:17.980Z,13.28
2022-12-31T19:24:27.246Z,13.25
2022-12-31T19:26:32.828Z,13.27
2022-12-31T19:28:38.732Z,13.26
2022-12-31T19:30:46.693Z,13.26
2022-12-31T19:32:51.649Z,13.25
2022-12-31T19:34:56.741Z,13.20
2022-12-31T19:37:01.713Z,13.18
2022-12-31T19:39:06.956Z,13.18
2022-12-31T19:41:16.412Z,13.16
2022-12-31T19:43:23.706Z,13.11
2022-12-31T19:45:30.198Z,13.06
2022-12-31T19:47:38.292Z,13.04
2022-12-31T19:49:43.182Z,13.00
2022-12-31T19:51:48.002Z,13.02
2022-12-31T19:53:53.155Z,12.96
2022-12-31T19:55:57.841Z,12.93
2022-12-31T19:58:02.687Z,12.94
2022-12-31T20:00:09.231Z,12.94
2022-12-31T20:02:17.312Z,12.94
2022-12-31T20:04:24.896Z,12.94
2022-12-31T20:06:29.790Z,12.94
2022-12-31T20:08:34.736Z,12.99
2022-12-31T20:10:39.742Z,13.00
2022-12-31T20:12:44.941Z,12.99
2022-12-31T20:14:49.573Z,13.03
2022-12-31T20:16:56.184Z,13.03
2022-12-31T20:19:01.003Z,13.04
2022-12-31T20:21:12.559Z,13.09
2022-12-31T20:23:17.430Z,13.11
2022-12-31T20:25:22.318Z,13.14
2022-12-31T20:27:27.326Z,13.13
2022-12-31T20:29:32.213Z,13.19
2022-12-31T20:31:37.180Z,13.21
2022-12-31T20:33:42.408Z,13.23
2022-12-31T20:35:49.327Z,13.26
2022-12-31T20:37:56.815Z,13.25
2022-12-31T20:40:01.775Z,13.27
2022-12-31T20:42:07.233Z,13.29
2022-12-31T20:44:12.373Z,13.27
2022-12-31T20:46:19.043Z,13.26
2022-12-31T20:48:24.114Z,13.26
2022-12-31T20:50:29.022Z,13.28
2022-12-31T20:52:33.892Z,13.31
2022-12-31T20:54:41.464Z,13.34
2022-12-31T20:56:46.585Z,13.35
2022-12-31T20:58:51.639Z,13.36
2022-12-31T21:00:56.724Z,13.42
2022-12-31T21:03:14.148Z,13.41
2022-12-31T21:05:23.988Z,13.42
2022-12-31T21:07:29.048Z,13.45
2022-12-31T21:09:33.958Z,13.48
2022-12-31T21:11:53.993Z,13.50
2022-12-31T21:14:02.664Z,13.55
2022-12-31T21:16:11.136Z,13.61
2022-12-31T21:18:16.071Z,13.62
2022-12-31T21:20:21.630Z,13.61
2022-12-31T21:22:26.596Z,13.62
2022-12-31T21:24:31.563Z,13.62
2022-12-31T21:26:36.646Z,13.61
2022-12-31T21:28:44.105Z,13.57
2022-12-31T21:30:49.156Z,13.55
2022-12-31T21:32:53.984Z,13.53
2022-12-31T21:35:31.537Z,13.53
2022-12-31T21:37:24.035Z,13.53
2022-12-31T21:39:28.960Z,13.53
2022-12-31T21:41:46.568Z,13.56
2022-12-31T21:43:56.395Z,13.54
2022-12-31T21:46:05.812Z,13.54
2022-12-31T21:48:25.097Z,13.51
2022-12-31T21:50:30.177Z,13.53
2022-12-31T21:52:35.641Z,13.52
2022-12-31T21:54:53.101Z,13.49
2022-12-31T21:56:58.143Z,13.47
2022-12-31T21:59:21.461Z,13.48
2022-12-31T22:01:39.002Z,13.51
2022-12-31T22:03:44.268Z,13.51
2022-12-31T22:05:50.143Z,13.48
2022-12-31T22:07:55.216Z,13.44
2022-12-31T22:10:00.523Z,13.47
2022-12-31T22:12:05.424Z,13.42
2022-12-31T22:14:13.348Z,13.45
2022-12-31T22:16:20.329Z,13.42
2022-12-31T22:18:25.638Z,13.40
2022-12-31T22:20:30.697Z,13.42
2022-12-31T22:22:35.598Z,13.45
2022-12-31T22:24:42.824Z,13.43
2022-12-31T22:26:47.828Z,13.41
2022-12-31T22:28:53.243Z,13.43
2022-12-31T22:31:01.073Z,13.43
2022-12-31T22:33:06.321Z,13.45
2022-12-31T22:35:11.365Z,13.42
2022-12-31T22:37:46.426Z,13.41
2022-12-31T22:39:43.482Z,13.42
2022-12-31T22:41:49.816Z,13.42
2022-12-31T22:44:03.828Z,13.43
2022-12-31T22:46:20.164Z,13.45
2022-12-31T22:48:25.484Z,13.43
2022-12-31T22:50:30.486Z,13.39
2022-12-31T22:52:36.958Z,13.32
2022-12-31T22:54:42.064Z,13.29
2022-12-31T22:56:46.947Z,13.25
2022-12-31T22:58:52.007Z,13.24
2022-12-31T23:00:57.628Z,13.24
2022-12-31T23:03:05.462Z,13.25
2022-12-31T23:05:14.939Z,13.20
2022-12-31T23:07:24.322Z,13.17
2022-12-31T23:09:41.785Z,13.15
2022-12-31T23:11:46.951Z,13.16
2022-12-31T23:14:06.504Z,13.17
2022-12-31T23:16:24.254Z,13.13
2022-12-31T23:18:44.346Z,13.14
2022-12-31T23:21:01.861Z,13.13
2022-12-31T23:23:14.319Z,13.12
2022-12-31T23:25:20.916Z,13.11
2022-12-31T23:27:25.884Z,13.10
2022-12-31T23:29:30.991Z,13.08
2022-12-31T23:31:35.735Z,13.02
2022-12-31T23:33:43.510Z,13.02
2022-12-31T23:35:49.067Z,13.00
2022-12-31T23:37:54.282Z,13.01
2022-12-31T23:39:58.957Z,12.97
2022-12-31T23:42:06.876Z,12.95
2022-12-31T23:44:13.237Z,12.93
2022-12-31T23:46:19.582Z,12.91
2022-12-31T23:48:24.597Z,12.94
2022-12-31T23:50:32.836Z,12.90
2022-12-31T23:52:37.769Z,12.89
2022-12-31T23:54:43.028Z,12.89
2022-12-31T23:56:48.014Z,12.93
2022-12-31T23:58:56.756Z,12.97
